createdAt,value
2022-11-20T00:10:21.197Z,-0.7
2022-11-20T00:22:21.286Z,-0.7
2022-11-20T00:34:21.203Z,-0.7
2022-11-20T00:46:21.198Z,-0.7
2022-11-20T00:58:21.189Z,-0.6
2022-11-20T01:10:21.228Z,-0.6
2022-11-20T01:22:21.211Z,-0.7
2022-11-20T01:34:21.192Z,-0.7
2022-11-20T01:46:21.223Z,-0.8
2022-11-20T01:58:21.269Z,-0.6
2022-11-20T02:10:21.306Z,-0.7
2022-11-20T02:22:21.319Z,-0.7
2022-11-20T02:34:21.236Z,-0.7
2022-11-20T02:46:21.203Z,-0.6
2022-11-20T02:58:21.304Z,-0.5
2022-11-20T03:10:21.263Z,-0.6
2022-11-20T03:22:21.191Z,-0.5
2022-11-20T03:34:21.207Z,-0.5
2022-11-20T03:46:21.244Z,-0.3
2022-11-20T03:58:21.279Z,-0.4
2022-11-20T04:10:21.241Z,-0.2
2022-11-20T04:22:21.284Z,-0.2
2022-11-20T04:34:21.296Z,-0.2
2022-11-20T04:46:21.192Z,-0.3
2022-11-20T04:58:21.277Z,-0.2
2022-11-20T05:10:21.314Z,-0.2
2022-11-20T05:22:21.251Z,-0.3
2022-11-20T05:34:21.216Z,-0.1
2022-11-20T05:46:27.823Z,0.0
2022-11-20T05:58:21.268Z,0.2
2022-11-20T06:10:21.245Z,0.3
2022-11-20T06:22:21.242Z,0.1
2022-11-20T06:34:21.316Z,0.1
2022-11-20T06:46:21.368Z,0.2
2022-11-20T06:58:21.306Z,0.4
2022-11-20T07:10:21.288Z,0.5
2022-11-20T07:22:21.247Z,0.6
2022-11-20T07:34:21.270Z,0.8
2022-11-20T07:46:21.392Z,0.9
2022-11-20T07:58:21.293Z,1.0
2022-11-20T08:10:21.193Z,1.1
2022-11-20T08:22:21.314Z,1.3
2022-11-20T08:34:21.252Z,1.3
2022-11-20T08:46:21.255Z,1.5
2022-11-20T08:58:21.268Z,1.3
2022-11-20T09:10:24.843Z,1.4
2022-11-20T09:22:21.316Z,1.5
2022-11-20T09:34:21.194Z,1.6
2022-11-20T09:46:21.240Z,2.0
2022-11-20T09:58:21.344Z,2.2
2022-11-20T10:10:21.284Z,2.3
2022-11-20T10:22:21.277Z,2.4
2022-11-20T10:34:23.212Z,2.6
2022-11-20T10:46:21.283Z,3.0
2022-11-20T10:58:21.290Z,3.1
2022-11-20T11:10:21.200Z,3.2
2022-11-20T11:22:21.285Z,3.7
2022-11-20T11:34:21.214Z,3.9
2022-11-20T11:46:21.195Z,3.8
2022-11-20T11:58:21.309Z,3.8
2022-11-20T12:10:21.244Z,4.0
2022-11-20T12:22:21.379Z,4.1
2022-11-20T12:34:21.289Z,3.9
2022-11-20T12:46:21.191Z,4.0
2022-11-20T12:58:21.303Z,4.0
2022-11-20T13:10:21.312Z,4.2
2022-11-20T13:22:21.246Z,4.5
2022-11-20T13:34:21.386Z,4.6
2022-11-20T13:46:21.263Z,4.6
2022-11-20T13:58:21.298Z,4.7
2022-11-20T14:10:21.295Z,4.7
2022-11-20T14:22:21.189Z,4.6
2022-11-20T14:34:21.534Z,4.6
2022-11-20T14:46:21.189Z,4.7
2022-11-20T14:58:21.282Z,4.8
2022-11-20T15:10:21.282Z,4.9
2022-11-20T15:22:21.307Z,4.9
2022-11-20T15:34:21.492Z,4.9
2022-11-20T15:46:21.253Z,5.0
2022-11-20T15:58:21.240Z,4.8
2022-11-20T16:10:21.198Z,4.5
2022-11-20T16:22:21.286Z,4.3
2022-11-20T16:34:21.253Z,4.2
2022-11-20T16:46:21.185Z,4.2
2022-11-20T16:58:21.240Z,4.3
2022-11-20T17:10:21.253Z,4.4
2022-11-20T17:22:21.248Z,4.5
2022-11-20T17:34:21.797Z,4.5
2022-11-20T17:46:21.284Z,4.5
2022-11-20T17:58:21.230Z,4.4
2022-11-20T18:10:21.303Z,4.5
2022-11-20T18:22:21.304Z,4.4
2022-11-20T18:34:21.736Z,4.4
2022-11-20T18:46:21.194Z,4.5
2022-11-20T18:58:21.210Z,4.5
2022-11-20T19:10:21.283Z,4.5
2022-11-20T19:22:21.304Z,4.5
2022-11-20T19:34:21.312Z,4.6
2022-11-20T19:46:21.268Z,4.6
2022-11-20T19:58:21.257Z,4.6
2022-11-20T20:10:21.197Z,4.6
2022-11-20T20:22:21.303Z,4.6
2022-11-20T20:34:21.305Z,4.6
2022-11-20T20:46:21.191Z,4.7
2022-11-20T20:58:21.278Z,4.6
2022-11-20T21:10:23.842Z,4.6
2022-11-20T21:22:21.273Z,4.6
2022-11-20T21:34:21.762Z,4.6
2022-11-20T21:46:21.190Z,4.5
2022-11-20T21:58:21.245Z,4.5
2022-11-20T22:10:21.258Z,4.4
2022-11-20T22:22:21.194Z,4.2
2022-11-20T22:34:21.574Z,4.3
2022-11-20T22:46:21.195Z,4.3
2022-11-20T22:58:21.279Z,4.3
2022-11-20T23:10:21.192Z,4.4
2022-11-20T23:22:21.188Z,4.4
2022-11-20T23:34:21.196Z,4.4
2022-11-20T23:46:21.198Z,4.4
2022-11-20T23:58:21.315Z,4.4
